Overview Statistics Trail Chart Weather Telemetry Raw packets
 

This is the latest recevied weather packets stored in our database for station/object HB9BVR. If no packets are shown the sender has not sent any weather packets the latest 10 day(s).

<< 1 2 3 4 5 >>
Time Temp. Humidity Pressure Rain* Wind** Luminosity Snow
1788177807 27.78° C 47% - 0 mm - - -
1788164309 22.78° C 64% - 0 mm - - -
1788159807 21.11° C 73% - 0 mm - - -
1788149905 18.89° C 74% - 0 mm - - -
1788149005 18.89° C 75% - 0 mm - - -
1788145409 21.67° C 62% - 0 mm - - -
1788131005 21.67° C 61% - 0 mm - - -
1788127404 21.67° C 62% - 0 mm - - -
1788122008 22.22° C 60% - 0 mm - - -
1788113905 23.89° C 55% - 0 mm - - -
1788098606 26.67° C 51% - 0 mm - - -
1788094105 27.78° C 50% - 0 mm - - -
1788090504 28.33° C 45% - 0 mm - - -
1788085115 25.56° C 52% - 0 mm - - -
1788082402 24.44° C 55% - 0 mm - - -
1788076106 21.67° C 64% - 0 mm - - -
1788072505 18.89° C 71% - 0 mm - - -
1788071604 17.22° C 75% - 0 mm - - -
1788062602 17.22° C 75% - 0 mm - - -
1788056306 17.78° C 74% - 0 mm - - -
1788020301 24.44° C 51% - 0 mm - - -
1788016700 25° C 50% - 0 mm - - -
1788009503 25° C 50% - 0 mm - - -
1788007703 25° C 52% - 0 mm - - -
1788002301 25° C 55% - 0 mm - - -

* Rain latest hour (hover to see other rain measurements)
** Current wind speed in m/s (hover to see current wind gust speed)